sensor_id;sensor_type;location;lat;lon;timestamp;P1;durP1;ratioP1;P2;durP2;ratioP2
7969;SDS011;4030;52.362;9.206;2023-02-23T00:01:23;5.13;;;4.63;;
7969;SDS011;4030;52.362;9.206;2023-02-23T00:03:53;7.10;;;4.88;;
7969;SDS011;4030;52.362;9.206;2023-02-23T00:06:21;5.82;;;4.88;;
7969;SDS011;4030;52.362;9.206;2023-02-23T00:08:49;5.32;;;4.80;;
7969;SDS011;4030;52.362;9.206;2023-02-23T00:11:16;7.43;;;5.15;;
7969;SDS011;4030;52.362;9.206;2023-02-23T00:13:43;5.60;;;5.03;;
7969;SDS011;4030;52.362;9.206;2023-02-23T00:16:14;5.47;;;4.95;;
7969;SDS011;4030;52.362;9.206;2023-02-23T00:18:46;5.55;;;5.05;;
7969;SDS011;4030;52.362;9.206;2023-02-23T00:21:24;5.85;;;5.25;;
7969;SDS011;4030;52.362;9.206;2023-02-23T00:26:25;6.22;;;5.45;;
7969;SDS011;4030;52.362;9.206;2023-02-23T00:28:55;5.85;;;5.22;;
7969;SDS011;4030;52.362;9.206;2023-02-23T00:31:23;6.07;;;5.45;;
7969;SDS011;4030;52.362;9.206;2023-02-23T00:33:51;5.75;;;4.95;;
7969;SDS011;4030;52.362;9.206;2023-02-23T00:36:20;6.32;;;5.45;;
7969;SDS011;4030;52.362;9.206;2023-02-23T00:38:51;6.20;;;5.57;;
7969;SDS011;4030;52.362;9.206;2023-02-23T00:41:18;5.70;;;5.20;;
7969;SDS011;4030;52.362;9.206;2023-02-23T00:43:47;6.00;;;5.40;;
7969;SDS011;4030;52.362;9.206;2023-02-23T00:46:14;7.30;;;5.93;;
7969;SDS011;4030;52.362;9.206;2023-02-23T00:48:46;5.70;;;5.20;;
7969;SDS011;4030;52.362;9.206;2023-02-23T00:51:14;6.35;;;5.75;;
7969;SDS011;4030;52.362;9.206;2023-02-23T00:53:41;6.57;;;5.53;;
7969;SDS011;4030;52.362;9.206;2023-02-23T00:56:08;6.93;;;5.50;;
7969;SDS011;4030;52.362;9.206;2023-02-23T00:58:37;6.97;;;6.25;;
7969;SDS011;4030;52.362;9.206;2023-02-23T01:01:06;6.72;;;6.03;;
7969;SDS011;4030;52.362;9.206;2023-02-23T01:03:35;7.10;;;6.28;;
7969;SDS011;4030;52.362;9.206;2023-02-23T01:06:02;7.75;;;6.55;;
7969;SDS011;4030;52.362;9.206;2023-02-23T01:08:33;7.38;;;6.35;;
7969;SDS011;4030;52.362;9.206;2023-02-23T01:11:07;7.65;;;6.88;;
7969;SDS011;4030;52.362;9.206;2023-02-23T01:13:36;7.80;;;6.68;;
7969;SDS011;4030;52.362;9.206;2023-02-23T01:16:03;7.65;;;6.82;;
7969;SDS011;4030;52.362;9.206;2023-02-23T01:18:35;7.88;;;7.07;;
7969;SDS011;4030;52.362;9.206;2023-02-23T01:21:01;8.68;;;7.60;;
7969;SDS011;4030;52.362;9.206;2023-02-23T01:23:29;8.07;;;7.25;;
7969;SDS011;4030;52.362;9.206;2023-02-23T01:25:55;9.50;;;7.95;;
7969;SDS011;4030;52.362;9.206;2023-02-23T01:28:21;9.65;;;7.93;;
7969;SDS011;4030;52.362;9.206;2023-02-23T01:30:47;8.48;;;7.57;;
7969;SDS011;4030;52.362;9.206;2023-02-23T01:33:13;8.75;;;7.43;;
7969;SDS011;4030;52.362;9.206;2023-02-23T01:35:39;9.05;;;8.15;;
7969;SDS011;4030;52.362;9.206;2023-02-23T01:38:07;9.13;;;7.97;;
7969;SDS011;4030;52.362;9.206;2023-02-23T01:40:34;9.13;;;8.23;;
7969;SDS011;4030;52.362;9.206;2023-02-23T01:43:12;10.00;;;8.35;;
7969;SDS011;4030;52.362;9.206;2023-02-23T01:45:42;9.90;;;8.85;;
7969;SDS011;4030;52.362;9.206;2023-02-23T01:48:10;9.60;;;8.60;;
7969;SDS011;4030;52.362;9.206;2023-02-23T01:53:32;10.63;;;9.55;;
7969;SDS011;4030;52.362;9.206;2023-02-23T01:56:05;11.10;;;9.75;;
7969;SDS011;4030;52.362;9.206;2023-02-23T01:58:35;10.35;;;9.35;;
7969;SDS011;4030;52.362;9.206;2023-02-23T02:01:07;10.63;;;9.57;;
7969;SDS011;4030;52.362;9.206;2023-02-23T02:03:41;11.18;;;10.07;;
7969;SDS011;4030;52.362;9.206;2023-02-23T02:06:09;11.02;;;9.93;;
7969;SDS011;4030;52.362;9.206;2023-02-23T02:08:39;10.70;;;9.60;;
7969;SDS011;4030;52.362;9.206;2023-02-23T02:11:12;11.63;;;10.25;;
7969;SDS011;4030;52.362;9.206;2023-02-23T02:14:31;11.55;;;10.32;;
7969;SDS011;4030;52.362;9.206;2023-02-23T02:26:04;12.40;;;11.13;;
7969;SDS011;4030;52.362;9.206;2023-02-23T02:32:28;12.75;;;11.45;;
7969;SDS011;4030;52.362;9.206;2023-02-23T02:41:33;13.02;;;11.70;;
7969;SDS011;4030;52.362;9.206;2023-02-23T02:47:31;13.50;;;12.10;;
7969;SDS011;4030;52.362;9.206;2023-02-23T02:50:07;12.95;;;11.65;;
7969;SDS011;4030;52.362;9.206;2023-02-23T02:53:08;12.75;;;11.35;;
7969;SDS011;4030;52.362;9.206;2023-02-23T02:55:39;12.48;;;11.23;;
7969;SDS011;4030;52.362;9.206;2023-02-23T02:58:07;13.10;;;11.80;;
7969;SDS011;4030;52.362;9.206;2023-02-23T03:00:42;12.60;;;11.05;;
7969;SDS011;4030;52.362;9.206;2023-02-23T03:03:34;13.60;;;11.23;;
7969;SDS011;4030;52.362;9.206;2023-02-23T03:06:24;12.45;;;11.10;;
7969;SDS011;4030;52.362;9.206;2023-02-23T03:15:28;12.82;;;10.77;;
7969;SDS011;4030;52.362;9.206;2023-02-23T03:21:48;11.80;;;10.32;;
7969;SDS011;4030;52.362;9.206;2023-02-23T03:27:37;12.10;;;10.88;;
7969;SDS011;4030;52.362;9.206;2023-02-23T03:30:44;11.57;;;10.18;;
7969;SDS011;4030;52.362;9.206;2023-02-23T03:34:02;11.93;;;10.73;;
7969;SDS011;4030;52.362;9.206;2023-02-23T03:37:15;13.48;;;11.27;;
7969;SDS011;4030;52.362;9.206;2023-02-23T03:43:04;12.48;;;11.10;;
7969;SDS011;4030;52.362;9.206;2023-02-23T03:45:54;12.65;;;11.43;;
7969;SDS011;4030;52.362;9.206;2023-02-23T03:48:40;13.43;;;12.13;;
7969;SDS011;4030;52.362;9.206;2023-02-23T03:51:28;14.10;;;12.32;;
7969;SDS011;4030;52.362;9.206;2023-02-23T03:54:17;13.80;;;12.35;;
7969;SDS011;4030;52.362;9.206;2023-02-23T03:57:11;14.82;;;13.23;;
7969;SDS011;4030;52.362;9.206;2023-02-23T03:59:59;15.10;;;13.50;;
7969;SDS011;4030;52.362;9.206;2023-02-23T04:02:48;15.88;;;14.18;;
7969;SDS011;4030;52.362;9.206;2023-02-23T04:05:35;15.13;;;13.52;;
7969;SDS011;4030;52.362;9.206;2023-02-23T04:08:24;16.02;;;13.93;;
7969;SDS011;4030;52.362;9.206;2023-02-23T04:11:18;16.45;;;14.70;;
7969;SDS011;4030;52.362;9.206;2023-02-23T04:14:07;16.60;;;14.85;;
7969;SDS011;4030;52.362;9.206;2023-02-23T04:16:43;16.35;;;14.68;;
7969;SDS011;4030;52.362;9.206;2023-02-23T04:19:10;17.92;;;15.00;;
7969;SDS011;4030;52.362;9.206;2023-02-23T04:21:36;16.95;;;15.15;;
7969;SDS011;4030;52.362;9.206;2023-02-23T04:24:02;16.08;;;14.40;;
7969;SDS011;4030;52.362;9.206;2023-02-23T04:26:28;17.15;;;15.40;;
7969;SDS011;4030;52.362;9.206;2023-02-23T04:28:54;18.15;;;15.90;;
7969;SDS011;4030;52.362;9.206;2023-02-23T04:31:20;18.02;;;16.23;;
7969;SDS011;4030;52.362;9.206;2023-02-23T04:33:48;17.05;;;15.30;;
7969;SDS011;4030;52.362;9.206;2023-02-23T04:36:14;18.45;;;15.38;;
7969;SDS011;4030;52.362;9.206;2023-02-23T04:38:41;18.10;;;16.20;;
7969;SDS011;4030;52.362;9.206;2023-02-23T04:41:07;17.67;;;15.82;;
7969;SDS011;4030;52.362;9.206;2023-02-23T04:43:33;17.33;;;15.52;;
7969;SDS011;4030;52.362;9.206;2023-02-23T04:45:59;18.27;;;16.35;;
7969;SDS011;4030;52.362;9.206;2023-02-23T04:48:25;19.02;;;17.05;;
7969;SDS011;4030;52.362;9.206;2023-02-23T04:50:52;17.42;;;15.63;;
7969;SDS011;4030;52.362;9.206;2023-02-23T04:53:18;18.15;;;16.08;;
7969;SDS011;4030;52.362;9.206;2023-02-23T04:55:44;20.08;;;16.80;;
7969;SDS011;4030;52.362;9.206;2023-02-23T04:58:09;19.45;;;16.38;;
7969;SDS011;4030;52.362;9.206;2023-02-23T05:00:38;18.67;;;16.67;;
7969;SDS011;4030;52.362;9.206;2023-02-23T05:03:04;19.75;;;17.17;;
7969;SDS011;4030;52.362;9.206;2023-02-23T05:05:31;21.10;;;17.52;;
7969;SDS011;4030;52.362;9.206;2023-02-23T05:07:56;19.60;;;17.17;;
7969;SDS011;4030;52.362;9.206;2023-02-23T05:10:22;19.38;;;17.33;;
7969;SDS011;4030;52.362;9.206;2023-02-23T05:12:48;19.08;;;17.08;;
7969;SDS011;4030;52.362;9.206;2023-02-23T05:15:14;19.85;;;17.15;;
7969;SDS011;4030;52.362;9.206;2023-02-23T05:17:40;20.75;;;17.90;;
7969;SDS011;4030;52.362;9.206;2023-02-23T05:20:06;20.77;;;17.85;;
7969;SDS011;4030;52.362;9.206;2023-02-23T05:22:34;20.10;;;17.92;;
7969;SDS011;4030;52.362;9.206;2023-02-23T05:25:00;20.15;;;17.98;;
7969;SDS011;4030;52.362;9.206;2023-02-23T05:27:26;21.73;;;17.40;;
7969;SDS011;4030;52.362;9.206;2023-02-23T05:29:51;21.10;;;17.73;;
7969;SDS011;4030;52.362;9.206;2023-02-23T05:32:17;21.42;;;18.50;;
7969;SDS011;4030;52.362;9.206;2023-02-23T05:34:43;20.83;;;17.95;;
7969;SDS011;4030;52.362;9.206;2023-02-23T05:37:09;21.52;;;18.48;;
7969;SDS011;4030;52.362;9.206;2023-02-23T05:39:35;20.60;;;17.80;;
7969;SDS011;4030;52.362;9.206;2023-02-23T05:42:02;21.25;;;17.80;;
7969;SDS011;4030;52.362;9.206;2023-02-23T05:44:28;20.75;;;18.55;;
7969;SDS011;4030;52.362;9.206;2023-02-23T05:46:54;20.67;;;18.45;;
7969;SDS011;4030;52.362;9.206;2023-02-23T05:49:20;21.48;;;18.75;;
7969;SDS011;4030;52.362;9.206;2023-02-23T05:51:46;21.10;;;18.13;;
7969;SDS011;4030;52.362;9.206;2023-02-23T05:54:12;21.38;;;18.20;;
7969;SDS011;4030;52.362;9.206;2023-02-23T05:56:39;20.90;;;18.13;;
7969;SDS011;4030;52.362;9.206;2023-02-23T05:59:05;20.27;;;17.73;;
7969;SDS011;4030;52.362;9.206;2023-02-23T06:01:31;20.42;;;18.20;;
7969;SDS011;4030;52.362;9.206;2023-02-23T06:03:57;20.45;;;17.83;;
7969;SDS011;4030;52.362;9.206;2023-02-23T06:06:22;21.50;;;18.23;;
7969;SDS011;4030;52.362;9.206;2023-02-23T06:08:49;20.58;;;18.25;;
7969;SDS011;4030;52.362;9.206;2023-02-23T06:11:16;21.95;;;17.58;;
7969;SDS011;4030;52.362;9.206;2023-02-23T06:13:42;21.00;;;17.70;;
7969;SDS011;4030;52.362;9.206;2023-02-23T06:16:07;20.45;;;18.17;;
7969;SDS011;4030;52.362;9.206;2023-02-23T06:18:34;21.20;;;17.90;;
7969;SDS011;4030;52.362;9.206;2023-02-23T06:21:00;19.38;;;17.38;;
7969;SDS011;4030;52.362;9.206;2023-02-23T06:23:28;21.35;;;19.05;;
7969;SDS011;4030;52.362;9.206;2023-02-23T06:25:54;20.30;;;18.20;;
7969;SDS011;4030;52.362;9.206;2023-02-23T06:28:20;20.00;;;17.83;;
7969;SDS011;4030;52.362;9.206;2023-02-23T06:30:47;19.55;;;17.45;;
7969;SDS011;4030;52.362;9.206;2023-02-23T06:33:16;20.02;;;17.75;;
7969;SDS011;4030;52.362;9.206;2023-02-23T06:35:42;19.50;;;17.52;;
7969;SDS011;4030;52.362;9.206;2023-02-23T06:38:09;20.25;;;18.13;;
7969;SDS011;4030;52.362;9.206;2023-02-23T06:40:36;21.15;;;18.45;;
7969;SDS011;4030;52.362;9.206;2023-02-23T06:43:05;20.17;;;18.08;;
7969;SDS011;4030;52.362;9.206;2023-02-23T06:45:31;20.70;;;18.40;;
7969;SDS011;4030;52.362;9.206;2023-02-23T06:47:58;20.17;;;18.08;;
7969;SDS011;4030;52.362;9.206;2023-02-23T06:50:24;19.80;;;17.75;;
7969;SDS011;4030;52.362;9.206;2023-02-23T06:52:50;20.85;;;18.13;;
7969;SDS011;4030;52.362;9.206;2023-02-23T06:55:16;20.77;;;18.05;;
7969;SDS011;4030;52.362;9.206;2023-02-23T06:57:42;20.85;;;18.17;;
7969;SDS011;4030;52.362;9.206;2023-02-23T07:00:09;21.10;;;18.80;;
7969;SDS011;4030;52.362;9.206;2023-02-23T07:02:39;19.48;;;17.38;;
7969;SDS011;4030;52.362;9.206;2023-02-23T07:05:06;21.85;;;18.52;;
7969;SDS011;4030;52.362;9.206;2023-02-23T07:07:32;20.02;;;17.95;;
7969;SDS011;4030;52.362;9.206;2023-02-23T07:09:58;22.40;;;18.23;;
7969;SDS011;4030;52.362;9.206;2023-02-23T07:12:24;20.42;;;18.33;;
7969;SDS011;4030;52.362;9.206;2023-02-23T07:14:50;21.58;;;18.42;;
7969;SDS011;4030;52.362;9.206;2023-02-23T07:17:16;20.75;;;18.35;;
7969;SDS011;4030;52.362;9.206;2023-02-23T07:19:42;20.25;;;18.05;;
7969;SDS011;4030;52.362;9.206;2023-02-23T07:22:09;21.45;;;18.67;;
7969;SDS011;4030;52.362;9.206;2023-02-23T07:24:34;21.52;;;18.73;;
7969;SDS011;4030;52.362;9.206;2023-02-23T07:27:02;20.95;;;18.75;;
7969;SDS011;4030;52.362;9.206;2023-02-23T07:29:28;21.23;;;19.02;;
7969;SDS011;4030;52.362;9.206;2023-02-23T07:31:54;22.55;;;20.15;;
7969;SDS011;4030;52.362;9.206;2023-02-23T07:34:20;20.70;;;18.50;;
7969;SDS011;4030;52.362;9.206;2023-02-23T07:36:45;20.85;;;18.65;;
7969;SDS011;4030;52.362;9.206;2023-02-23T07:39:12;21.27;;;18.67;;
7969;SDS011;4030;52.362;9.206;2023-02-23T07:41:37;22.00;;;19.52;;
7969;SDS011;4030;52.362;9.206;2023-02-23T07:44:03;21.17;;;18.90;;
7969;SDS011;4030;52.362;9.206;2023-02-23T07:46:29;21.02;;;18.75;;
7969;SDS011;4030;52.362;9.206;2023-02-23T07:48:55;20.67;;;18.48;;
7969;SDS011;4030;52.362;9.206;2023-02-23T07:51:21;21.27;;;18.98;;
7969;SDS011;4030;52.362;9.206;2023-02-23T07:53:47;21.10;;;18.60;;
7969;SDS011;4030;52.362;9.206;2023-02-23T07:56:13;20.60;;;18.50;;
7969;SDS011;4030;52.362;9.206;2023-02-23T07:58:40;21.77;;;19.48;;
7969;SDS011;4030;52.362;9.206;2023-02-23T08:01:08;21.27;;;18.40;;
7969;SDS011;4030;52.362;9.206;2023-02-23T08:03:36;21.40;;;19.10;;
7969;SDS011;4030;52.362;9.206;2023-02-23T08:06:03;21.83;;;19.38;;
7969;SDS011;4030;52.362;9.206;2023-02-23T08:08:29;20.90;;;18.65;;
7969;SDS011;4030;52.362;9.206;2023-02-23T08:10:58;21.48;;;19.17;;
7969;SDS011;4030;52.362;9.206;2023-02-23T08:13:25;21.08;;;18.88;;
7969;SDS011;4030;52.362;9.206;2023-02-23T08:15:50;21.23;;;18.95;;
7969;SDS011;4030;52.362;9.206;2023-02-23T08:18:16;21.33;;;18.80;;
7969;SDS011;4030;52.362;9.206;2023-02-23T08:20:42;20.67;;;18.42;;
7969;SDS011;4030;52.362;9.206;2023-02-23T08:23:08;20.80;;;18.60;;
7969;SDS011;4030;52.362;9.206;2023-02-23T08:25:35;20.27;;;17.90;;
7969;SDS011;4030;52.362;9.206;2023-02-23T08:28:01;21.52;;;19.23;;
7969;SDS011;4030;52.362;9.206;2023-02-23T08:30:28;20.20;;;18.15;;
7969;SDS011;4030;52.362;9.206;2023-02-23T08:32:55;21.85;;;19.38;;
7969;SDS011;4030;52.362;9.206;2023-02-23T08:35:21;21.95;;;18.90;;
7969;SDS011;4030;52.362;9.206;2023-02-23T08:37:47;21.25;;;18.77;;
7969;SDS011;4030;52.362;9.206;2023-02-23T08:40:13;21.02;;;18.83;;
7969;SDS011;4030;52.362;9.206;2023-02-23T08:42:43;21.70;;;19.00;;
7969;SDS011;4030;52.362;9.206;2023-02-23T08:45:09;21.05;;;18.85;;
7969;SDS011;4030;52.362;9.206;2023-02-23T08:47:36;20.20;;;18.23;;
7969;SDS011;4030;52.362;9.206;2023-02-23T08:50:02;23.80;;;19.80;;
7969;SDS011;4030;52.362;9.206;2023-02-23T08:52:29;21.15;;;18.85;;
7969;SDS011;4030;52.362;9.206;2023-02-23T08:54:55;21.42;;;18.88;;
7969;SDS011;4030;52.362;9.206;2023-02-23T08:57:21;22.35;;;19.73;;
7969;SDS011;4030;52.362;9.206;2023-02-23T08:59:47;20.67;;;18.42;;
7969;SDS011;4030;52.362;9.206;2023-02-23T09:02:14;22.50;;;20.10;;
7969;SDS011;4030;52.362;9.206;2023-02-23T09:04:40;22.17;;;19.75;;
7969;SDS011;4030;52.362;9.206;2023-02-23T09:07:06;22.17;;;19.77;;
7969;SDS011;4030;52.362;9.206;2023-02-23T09:09:33;22.52;;;20.17;;
7969;SDS011;4030;52.362;9.206;2023-02-23T09:11:58;23.27;;;20.33;;
7969;SDS011;4030;52.362;9.206;2023-02-23T09:14:25;22.90;;;20.40;;
7969;SDS011;4030;52.362;9.206;2023-02-23T09:16:51;22.98;;;19.83;;
7969;SDS011;4030;52.362;9.206;2023-02-23T09:19:16;22.23;;;19.88;;
7969;SDS011;4030;52.362;9.206;2023-02-23T09:21:42;22.65;;;20.25;;
7969;SDS011;4030;52.362;9.206;2023-02-23T09:24:08;23.60;;;21.10;;
7969;SDS011;4030;52.362;9.206;2023-02-23T09:26:34;22.60;;;20.20;;
7969;SDS011;4030;52.362;9.206;2023-02-23T09:29:04;22.60;;;20.23;;
7969;SDS011;4030;52.362;9.206;2023-02-23T09:31:31;21.80;;;19.58;;
7969;SDS011;4030;52.362;9.206;2023-02-23T09:33:57;21.40;;;19.23;;
7969;SDS011;4030;52.362;9.206;2023-02-23T09:36:27;22.17;;;19.83;;
7969;SDS011;4030;52.362;9.206;2023-02-23T09:38:54;21.73;;;19.42;;
7969;SDS011;4030;52.362;9.206;2023-02-23T09:43:54;22.95;;;20.40;;
7969;SDS011;4030;52.362;9.206;2023-02-23T09:47:09;21.13;;;18.80;;
7969;SDS011;4030;52.362;9.206;2023-02-23T09:49:46;20.58;;;18.45;;
7969;SDS011;4030;52.362;9.206;2023-02-23T09:52:16;21.10;;;18.90;;
7969;SDS011;4030;52.362;9.206;2023-02-23T09:54:46;20.98;;;18.80;;
7969;SDS011;4030;52.362;9.206;2023-02-23T09:57:17;20.48;;;18.38;;
7969;SDS011;4030;52.362;9.206;2023-02-23T09:59:48;20.85;;;18.45;;
7969;SDS011;4030;52.362;9.206;2023-02-23T10:05:23;20.55;;;18.35;;
7969;SDS011;4030;52.362;9.206;2023-02-23T10:07:58;20.33;;;18.23;;
7969;SDS011;4030;52.362;9.206;2023-02-23T10:13:14;19.95;;;17.95;;
7969;SDS011;4030;52.362;9.206;2023-02-23T10:18:48;19.30;;;17.38;;
7969;SDS011;4030;52.362;9.206;2023-02-23T10:21:20;19.05;;;17.05;;
7969;SDS011;4030;52.362;9.206;2023-02-23T10:24:02;19.40;;;17.40;;
7969;SDS011;4030;52.362;9.206;2023-02-23T10:26:48;18.52;;;16.52;;
7969;SDS011;4030;52.362;9.206;2023-02-23T10:29:34;17.95;;;15.95;;
7969;SDS011;4030;52.362;9.206;2023-02-23T10:32:30;18.85;;;16.95;;
7969;SDS011;4030;52.362;9.206;2023-02-23T10:35:14;18.30;;;16.42;;
7969;SDS011;4030;52.362;9.206;2023-02-23T10:37:45;18.17;;;16.38;;
7969;SDS011;4030;52.362;9.206;2023-02-23T10:40:15;18.50;;;16.60;;
7969;SDS011;4030;52.362;9.206;2023-02-23T10:42:46;18.08;;;16.17;;
7969;SDS011;4030;52.362;9.206;2023-02-23T10:45:13;17.60;;;15.70;;
7969;SDS011;4030;52.362;9.206;2023-02-23T10:47:46;16.35;;;14.70;;
7969;SDS011;4030;52.362;9.206;2023-02-23T10:50:32;16.73;;;15.02;;
7969;SDS011;4030;52.362;9.206;2023-02-23T10:53:09;16.88;;;15.07;;
7969;SDS011;4030;52.362;9.206;2023-02-23T10:55:42;16.45;;;14.75;;
7969;SDS011;4030;52.362;9.206;2023-02-23T10:58:10;15.73;;;14.13;;
7969;SDS011;4030;52.362;9.206;2023-02-23T11:06:06;16.77;;;14.98;;
7969;SDS011;4030;52.362;9.206;2023-02-23T11:12:00;16.65;;;14.38;;
7969;SDS011;4030;52.362;9.206;2023-02-23T11:14:39;16.67;;;14.90;;
7969;SDS011;4030;52.362;9.206;2023-02-23T11:17:05;16.17;;;14.48;;
7969;SDS011;4030;52.362;9.206;2023-02-23T11:19:48;17.17;;;15.23;;
7969;SDS011;4030;52.362;9.206;2023-02-23T11:22:18;18.08;;;15.20;;
7969;SDS011;4030;52.362;9.206;2023-02-23T11:24:47;18.05;;;15.48;;
7969;SDS011;4030;52.362;9.206;2023-02-23T11:27:23;16.35;;;14.65;;
7969;SDS011;4030;52.362;9.206;2023-02-23T11:29:51;18.35;;;15.23;;
7969;SDS011;4030;52.362;9.206;2023-02-23T11:32:21;17.73;;;15.82;;
7969;SDS011;4030;52.362;9.206;2023-02-23T11:37:46;18.40;;;15.30;;
7969;SDS011;4030;52.362;9.206;2023-02-23T11:40:18;17.05;;;14.68;;
7969;SDS011;4030;52.362;9.206;2023-02-23T11:45:44;17.02;;;15.02;;
7969;SDS011;4030;52.362;9.206;2023-02-23T11:48:32;18.45;;;15.25;;
7969;SDS011;4030;52.362;9.206;2023-02-23T11:51:06;17.73;;;15.27;;
7969;SDS011;4030;52.362;9.206;2023-02-23T11:53:36;18.02;;;15.18;;
7969;SDS011;4030;52.362;9.206;2023-02-23T11:56:04;19.40;;;15.13;;
7969;SDS011;4030;52.362;9.206;2023-02-23T11:58:38;18.67;;;15.43;;
7969;SDS011;4030;52.362;9.206;2023-02-23T12:01:11;17.70;;;14.40;;
7969;SDS011;4030;52.362;9.206;2023-02-23T12:03:51;17.85;;;14.23;;
7969;SDS011;4030;52.362;9.206;2023-02-23T12:06:28;17.65;;;15.40;;
7969;SDS011;4030;52.362;9.206;2023-02-23T12:09:04;16.70;;;14.65;;
7969;SDS011;4030;52.362;9.206;2023-02-23T12:11:49;18.75;;;14.98;;
7969;SDS011;4030;52.362;9.206;2023-02-23T12:14:28;20.30;;;15.98;;
7969;SDS011;4030;52.362;9.206;2023-02-23T12:17:04;17.98;;;15.18;;
7969;SDS011;4030;52.362;9.206;2023-02-23T12:19:46;17.83;;;14.88;;
7969;SDS011;4030;52.362;9.206;2023-02-23T12:22:25;16.48;;;14.75;;
7969;SDS011;4030;52.362;9.206;2023-02-23T12:24:58;20.52;;;15.63;;
7969;SDS011;4030;52.362;9.206;2023-02-23T12:27:58;20.17;;;15.98;;
7969;SDS011;4030;52.362;9.206;2023-02-23T12:31:30;19.85;;;16.38;;
7969;SDS011;4030;52.362;9.206;2023-02-23T12:34:43;20.27;;;16.15;;
7969;SDS011;4030;52.362;9.206;2023-02-23T12:51:30;20.65;;;15.50;;
7969;SDS011;4030;52.362;9.206;2023-02-23T12:54:00;20.80;;;16.05;;
7969;SDS011;4030;52.362;9.206;2023-02-23T12:56:30;21.23;;;15.73;;
7969;SDS011;4030;52.362;9.206;2023-02-23T12:59:22;21.13;;;16.38;;
7969;SDS011;4030;52.362;9.206;2023-02-23T13:02:12;19.95;;;16.25;;
7969;SDS011;4030;52.362;9.206;2023-02-23T13:05:11;20.60;;;16.52;;
7969;SDS011;4030;52.362;9.206;2023-02-23T13:13:29;19.83;;;15.38;;
7969;SDS011;4030;52.362;9.206;2023-02-23T13:16:22;18.73;;;15.30;;
7969;SDS011;4030;52.362;9.206;2023-02-23T13:19:15;19.50;;;15.18;;
7969;SDS011;4030;52.362;9.206;2023-02-23T13:24:52;20.40;;;15.25;;
7969;SDS011;4030;52.362;9.206;2023-02-23T13:27:28;20.15;;;15.27;;
7969;SDS011;4030;52.362;9.206;2023-02-23T13:30:14;19.40;;;14.88;;
7969;SDS011;4030;52.362;9.206;2023-02-23T13:32:40;17.30;;;13.88;;
7969;SDS011;4030;52.362;9.206;2023-02-23T13:35:09;20.42;;;15.43;;
7969;SDS011;4030;52.362;9.206;2023-02-23T13:51:56;17.23;;;13.50;;
7969;SDS011;4030;52.362;9.206;2023-02-23T13:54:33;17.77;;;14.52;;
7969;SDS011;4030;52.362;9.206;2023-02-23T13:57:04;17.20;;;14.20;;
7969;SDS011;4030;52.362;9.206;2023-02-23T13:59:42;16.60;;;13.75;;
7969;SDS011;4030;52.362;9.206;2023-02-23T14:04:59;17.30;;;13.80;;
7969;SDS011;4030;52.362;9.206;2023-02-23T14:07:53;16.77;;;12.88;;
7969;SDS011;4030;52.362;9.206;2023-02-23T14:10:26;17.25;;;13.18;;
7969;SDS011;4030;52.362;9.206;2023-02-23T14:24:30;17.77;;;14.40;;
7969;SDS011;4030;52.362;9.206;2023-02-23T14:29:38;16.35;;;13.38;;
7969;SDS011;4030;52.362;9.206;2023-02-23T14:34:52;17.73;;;14.25;;
7969;SDS011;4030;52.362;9.206;2023-02-23T14:37:36;16.90;;;13.85;;
7969;SDS011;4030;52.362;9.206;2023-02-23T14:42:38;16.50;;;14.13;;
7969;SDS011;4030;52.362;9.206;2023-02-23T14:45:11;16.60;;;13.75;;
7969;SDS011;4030;52.362;9.206;2023-02-23T14:48:03;18.02;;;13.88;;
7969;SDS011;4030;52.362;9.206;2023-02-23T14:50:35;17.00;;;14.60;;
7969;SDS011;4030;52.362;9.206;2023-02-23T14:53:03;16.73;;;14.18;;
7969;SDS011;4030;52.362;9.206;2023-02-23T14:55:39;17.65;;;14.00;;
7969;SDS011;4030;52.362;9.206;2023-02-23T14:58:24;17.80;;;14.05;;
7969;SDS011;4030;52.362;9.206;2023-02-23T15:00:53;18.00;;;13.90;;
7969;SDS011;4030;52.362;9.206;2023-02-23T15:03:18;17.20;;;13.88;;
7969;SDS011;4030;52.362;9.206;2023-02-23T15:05:47;17.80;;;14.52;;
7969;SDS011;4030;52.362;9.206;2023-02-23T15:08:18;18.05;;;14.82;;
7969;SDS011;4030;52.362;9.206;2023-02-23T15:10:51;19.05;;;14.63;;
7969;SDS011;4030;52.362;9.206;2023-02-23T15:13:32;16.80;;;14.20;;
7969;SDS011;4030;52.362;9.206;2023-02-23T15:16:02;16.90;;;13.77;;
7969;SDS011;4030;52.362;9.206;2023-02-23T15:21:56;16.83;;;13.95;;
7969;SDS011;4030;52.362;9.206;2023-02-23T15:24:25;18.50;;;14.00;;
7969;SDS011;4030;52.362;9.206;2023-02-23T15:27:11;19.77;;;14.75;;
7969;SDS011;4030;52.362;9.206;2023-02-23T15:29:50;18.48;;;14.50;;
7969;SDS011;4030;52.362;9.206;2023-02-23T15:32:23;15.25;;;13.13;;
7969;SDS011;4030;52.362;9.206;2023-02-23T15:34:50;16.75;;;13.10;;
7969;SDS011;4030;52.362;9.206;2023-02-23T15:37:28;16.95;;;13.90;;
7969;SDS011;4030;52.362;9.206;2023-02-23T15:40:06;16.48;;;12.32;;
7969;SDS011;4030;52.362;9.206;2023-02-23T15:42:48;16.60;;;12.40;;
7969;SDS011;4030;52.362;9.206;2023-02-23T15:47:55;15.13;;;11.85;;
7969;SDS011;4030;52.362;9.206;2023-02-23T15:50:27;14.20;;;11.73;;
7969;SDS011;4030;52.362;9.206;2023-02-23T15:53:00;14.52;;;11.15;;
7969;SDS011;4030;52.362;9.206;2023-02-23T15:55:34;14.18;;;11.23;;
7969;SDS011;4030;52.362;9.206;2023-02-23T15:58:09;14.82;;;11.38;;
7969;SDS011;4030;52.362;9.206;2023-02-23T16:00:43;14.98;;;11.02;;
7969;SDS011;4030;52.362;9.206;2023-02-23T16:03:53;13.70;;;10.93;;
7969;SDS011;4030;52.362;9.206;2023-02-23T16:09:30;13.10;;;10.02;;
7969;SDS011;4030;52.362;9.206;2023-02-23T16:14:33;14.60;;;10.23;;
7969;SDS011;4030;52.362;9.206;2023-02-23T16:17:19;12.48;;;9.55;;
7969;SDS011;4030;52.362;9.206;2023-02-23T16:19:51;11.20;;;9.35;;
7969;SDS011;4030;52.362;9.206;2023-02-23T16:22:21;15.60;;;9.95;;
7969;SDS011;4030;52.362;9.206;2023-02-23T16:24:56;14.35;;;10.48;;
7969;SDS011;4030;52.362;9.206;2023-02-23T16:27:29;14.70;;;9.55;;
7969;SDS011;4030;52.362;9.206;2023-02-23T16:29:57;13.30;;;9.18;;
7969;SDS011;4030;52.362;9.206;2023-02-23T16:32:32;11.68;;;8.98;;
7969;SDS011;4030;52.362;9.206;2023-02-23T16:35:07;11.80;;;9.38;;
7969;SDS011;4030;52.362;9.206;2023-02-23T16:37:51;14.80;;;9.60;;
7969;SDS011;4030;52.362;9.206;2023-02-23T16:40:25;12.18;;;10.13;;
7969;SDS011;4030;52.362;9.206;2023-02-23T16:42:51;13.35;;;9.73;;
7969;SDS011;4030;52.362;9.206;2023-02-23T16:45:22;12.73;;;10.20;;
7969;SDS011;4030;52.362;9.206;2023-02-23T16:47:50;12.70;;;9.52;;
7969;SDS011;4030;52.362;9.206;2023-02-23T16:52:45;11.85;;;9.23;;
7969;SDS011;4030;52.362;9.206;2023-02-23T16:55:17;12.23;;;9.35;;
7969;SDS011;4030;52.362;9.206;2023-02-23T16:57:50;12.88;;;9.98;;
7969;SDS011;4030;52.362;9.206;2023-02-23T17:00:23;14.00;;;9.48;;
7969;SDS011;4030;52.362;9.206;2023-02-23T17:02:52;13.48;;;10.10;;
7969;SDS011;4030;52.362;9.206;2023-02-23T17:05:20;15.15;;;10.02;;
7969;SDS011;4030;52.362;9.206;2023-02-23T17:07:48;13.75;;;10.10;;
7969;SDS011;4030;52.362;9.206;2023-02-23T17:10:24;13.95;;;10.77;;
7969;SDS011;4030;52.362;9.206;2023-02-23T17:12:55;12.95;;;10.30;;
7969;SDS011;4030;52.362;9.206;2023-02-23T17:15:35;13.90;;;10.38;;
7969;SDS011;4030;52.362;9.206;2023-02-23T17:18:04;14.43;;;10.25;;
7969;SDS011;4030;52.362;9.206;2023-02-23T17:20:30;16.67;;;10.52;;
7969;SDS011;4030;52.362;9.206;2023-02-23T17:22:56;13.50;;;10.02;;
7969;SDS011;4030;52.362;9.206;2023-02-23T17:25:24;16.38;;;10.88;;
7969;SDS011;4030;52.362;9.206;2023-02-23T17:27:50;17.20;;;11.65;;
7969;SDS011;4030;52.362;9.206;2023-02-23T17:30:20;15.65;;;10.88;;
7969;SDS011;4030;52.362;9.206;2023-02-23T17:32:48;16.17;;;11.13;;
7969;SDS011;4030;52.362;9.206;2023-02-23T17:35:16;16.35;;;10.80;;
7969;SDS011;4030;52.362;9.206;2023-02-23T17:37:42;14.23;;;10.55;;
7969;SDS011;4030;52.362;9.206;2023-02-23T17:40:09;15.05;;;9.95;;
7969;SDS011;4030;52.362;9.206;2023-02-23T17:42:40;15.80;;;11.25;;
7969;SDS011;4030;52.362;9.206;2023-02-23T17:45:06;16.35;;;11.05;;